Time;durP1;ratioP1;P1;durP2;ratioP2;P2;SDS_P1;SDS_P2;PMS_P1;PMS_P2;Temp;Humidity;BMP_temperature;BMP_pressure;BME280_temperature;BME280_humidity;BME280_pressure;Samples;Min_cycle;Max_cycle;Signal;HPM_P1;HPM_P2
2022/07/06 00:00:48;;;;;;;5.80;1.58;;;;;;;13.46;81.23;102502.72;4994843;28;20509;-68
2022/07/06 00:03:13;;;;;;;7.93;1.90;;;;;;;13.49;80.51;102471.28;4993661;28;20018;-69
2022/07/06 00:05:39;;;;;;;5.63;1.92;;;;;;;13.79;80.41;102494.09;4995230;28;20354;-69
2022/07/06 00:08:04;;;;;;;4.05;1.38;;;;;;;13.78;80.56;102498.47;4993726;28;20026;-69
2022/07/06 00:10:30;;;;;;;3.22;1.60;;;;;;;13.66;81.00;102498.00;4995010;28;20026;-69
2022/07/06 00:12:55;;;;;;;8.00;1.70;;;;;;;13.59;81.17;102502.25;4994890;28;20449;-69
2022/07/06 00:15:20;;;;;;;4.57;1.48;;;;;;;13.62;81.59;102496.72;4994782;28;20088;-69
2022/07/06 00:17:46;;;;;;;5.38;1.50;;;;;;;13.64;81.38;102488.78;4994630;28;20036;-68
2022/07/06 00:20:11;;;;;;;7.95;1.60;;;;;;;13.61;81.42;102500.31;4994642;28;20022;-68
2022/07/06 00:22:36;;;;;;;4.03;1.50;;;;;;;13.51;82.12;102499.66;4993266;28;20030;-68
2022/07/06 00:25:02;;;;;;;6.50;1.85;;;;;;;13.39;82.56;102499.19;4994672;28;20022;-69
2022/07/06 00:27:27;;;;;;;5.10;1.75;;;;;;;13.38;83.48;102504.53;4994881;28;20058;-69
2022/07/06 00:29:52;;;;;;;3.80;1.50;;;;;;;13.37;83.27;102503.72;4994634;28;20072;-69
2022/07/06 00:32:17;;;;;;;4.32;1.70;;;;;;;13.38;83.71;102502.78;4993174;28;20390;-69
2022/07/06 00:34:43;;;;;;;4.57;1.42;;;;;;;13.38;83.58;102499.34;4994511;28;20076;-69
2022/07/06 00:37:08;;;;;;;5.72;1.58;;;;;;;13.38;83.48;102497.56;4994465;28;20029;-68
2022/07/06 00:39:34;;;;;;;6.22;1.52;;;;;;;13.31;84.00;102494.78;4993034;28;20022;-68
2022/07/06 00:41:59;;;;;;;8.35;1.33;;;;;;;13.24;83.77;102498.19;4994155;28;20050;-69
2022/07/06 00:44:24;;;;;;;4.72;1.27;;;;;;;13.32;84.61;102495.59;4994307;28;20056;-69
2022/07/06 00:46:50;;;;;;;6.03;1.55;;;;;;;13.26;83.80;102496.25;5009310;28;20394;-68
2022/07/06 00:51:59;;;;;;;6.20;1.55;;;;;;;13.30;84.21;102500.97;4994400;28;20541;-69
2022/07/06 00:54:26;;;;;;;7.78;1.70;;;;;;;13.25;83.61;102499.81;4994242;28;20034;-69
2022/07/06 00:56:51;;;;;;;7.47;1.38;;;;;;;13.13;84.74;102507.09;4994089;28;20073;-69
2022/07/06 00:59:17;;;;;;;6.40;1.58;;;;;;;13.14;84.92;102502.72;4994024;28;20427;-69
2022/07/06 01:01:42;;;;;;;4.85;1.50;;;;;;;13.18;84.26;102498.84;4994035;28;20109;-69
2022/07/06 01:04:07;;;;;;;5.53;1.58;;;;;;;13.20;84.37;102502.88;4992736;28;20041;-68
2022/07/06 01:06:32;;;;;;;3.85;1.48;;;;;;;13.21;84.41;102506.31;4993972;28;20034;-69
2022/07/06 01:08:59;;;;;;;3.85;1.40;;;;;;;13.20;83.64;102500.28;4993926;28;20389;-69
2022/07/06 01:11:25;;;;;;;6.97;1.50;;;;;;;13.09;84.31;102504.03;4993969;28;20470;-69
2022/07/06 01:13:50;;;;;;;7.05;1.40;;;;;;;13.06;84.75;102511.31;4993479;28;20026;-69
2022/07/06 01:16:17;;;;;;;8.40;1.60;;;;;;;12.97;84.79;102507.88;4992678;28;20034;-69
2022/07/06 01:18:42;;;;;;;3.05;1.42;;;;;;;12.94;84.95;102505.63;4992420;28;20371;-69
2022/07/06 01:21:09;;;;;;;4.25;1.38;;;;;;;12.99;84.55;102508.56;4992542;28;20027;-69
2022/07/06 01:23:39;;;;;;;4.53;1.38;;;;;;;12.99;84.76;102512.94;4993845;28;20093;-69
2022/07/06 01:26:05;;;;;;;5.30;1.30;;;;;;;12.99;84.74;102507.75;4992528;28;20025;-69
2022/07/06 01:28:30;;;;;;;3.67;1.15;;;;;;;12.91;84.39;102508.53;4993653;28;20377;-69
2022/07/06 01:30:55;;;;;;;6.45;1.35;;;;;;;12.88;84.82;102501.88;4993776;28;20030;-70
2022/07/06 01:33:20;;;;;;;7.97;1.42;;;;;;;12.82;83.99;102478.38;4993801;28;20030;-69
2022/07/06 01:35:46;;;;;;;4.10;0.90;;;;;;;12.96;84.41;102490.72;4993659;28;20465;-69
2022/07/06 01:38:11;;;;;;;18.23;1.80;;;;;;;12.90;84.40;102493.94;4993746;28;20031;-69
2022/07/06 01:40:37;;;;;;;3.15;1.35;;;;;;;12.91;84.68;102492.16;4992306;28;20026;-69
2022/07/06 01:43:02;;;;;;;4.13;1.27;;;;;;;13.02;84.29;102481.47;4993466;28;20050;-69
2022/07/06 01:45:31;;;;;;;6.45;1.48;;;;;;;13.16;84.16;102495.59;4992344;28;20038;-69
2022/07/06 01:47:56;;;;;;;5.45;1.30;;;;;;;13.23;83.66;102491.38;4993523;28;20038;-69
2022/07/06 01:50:22;;;;;;;5.80;1.48;;;;;;;13.28;83.66;102487.34;4993481;28;20026;-69
2022/07/06 01:52:47;;;;;;;3.75;1.40;;;;;;;13.31;84.33;102496.59;4992240;28;20033;-68
2022/07/06 01:55:12;;;;;;;3.72;1.50;;;;;;;13.43;83.79;102486.69;4993533;28;20022;-69
2022/07/06 01:57:37;;;;;;;4.18;1.20;;;;;;;13.64;83.02;102486.19;4993522;28;21982;-68
2022/07/06 02:00:06;;;;;;;5.53;1.52;;;;;;;13.70;82.23;102486.31;4992209;28;20470;-68
2022/07/06 02:02:31;;;;;;;6.18;1.10;;;;;;;13.80;82.06;102482.72;4993303;28;20461;-68
2022/07/06 02:04:56;;;;;;;4.82;1.10;;;;;;;13.90;81.87;102488.56;4993488;28;20070;-69
2022/07/06 02:07:22;;;;;;;4.30;1.52;;;;;;;13.93;81.83;102480.41;4993399;28;20018;-69
2022/07/06 02:09:47;;;;;;;5.82;1.40;;;;;;;14.06;81.09;102483.28;4992142;28;20022;-68
2022/07/06 02:12:12;;;;;;;4.05;1.05;;;;;;;14.00;80.89;102479.56;4992067;28;20038;-68
2022/07/06 02:14:37;;;;;;;3.22;0.88;;;;;;;14.03;80.91;102475.00;4993301;28;20037;-68
2022/07/06 02:17:03;;;;;;;3.28;1.20;;;;;;;14.06;80.54;102480.69;4993256;28;20461;-68
2022/07/06 02:19:28;;;;;;;3.72;1.00;;;;;;;14.09;79.31;102474.34;4991984;28;20026;-68
2022/07/06 02:21:53;;;;;;;7.22;1.00;;;;;;;14.21;80.68;102484.22;4993275;28;20110;-69
2022/07/06 02:24:19;;;;;;;8.18;1.50;;;;;;;14.20;80.51;102490.38;4993301;28;20034;-69
2022/07/06 02:26:44;;;;;;;3.72;1.10;;;;;;;14.24;79.46;102485.63;4995606;28;20498;-69
2022/07/06 02:29:09;;;;;;;3.08;1.20;;;;;;;14.10;80.54;102462.97;4996944;28;20029;-69
2022/07/06 02:31:35;;;;;;;3.10;1.08;;;;;;;14.13;79.80;102480.84;4995510;28;20540;-68
2022/07/06 02:34:00;;;;;;;5.53;1.02;;;;;;;14.24;79.61;102483.03;4996640;28;20018;-68
2022/07/06 02:36:25;;;;;;;3.53;1.02;;;;;;;14.34;78.96;102488.84;4996733;28;20030;-69
2022/07/06 02:38:50;;;;;;;3.30;1.13;;;;;;;14.35;78.86;102487.88;4996626;28;20470;-68
2022/07/06 02:41:16;;;;;;;6.85;1.13;;;;;;;14.32;78.79;102495.19;4996519;28;20047;-68
2022/07/06 02:43:41;;;;;;;4.32;1.10;;;;;;;14.35;77.74;102492.25;4995344;28;20481;-68
2022/07/06 02:46:06;;;;;;;3.90;1.20;;;;;;;14.54;77.35;102498.88;4996546;28;20046;-69
2022/07/06 02:48:32;;;;;;;5.15;1.25;;;;;;;14.44;77.67;102492.06;4996420;28;20023;-68
2022/07/06 02:50:58;;;;;;;5.38;1.30;;;;;;;14.43;78.60;102487.81;5011544;28;20085;-69
2022/07/06 02:53:24;;;;;;;9.73;1.15;;;;;;;14.45;76.80;102482.47;4996408;28;20026;-68
2022/07/06 02:55:49;;;;;;;2.50;0.75;;;;;;;14.53;76.95;102492.88;4995133;28;20037;-69
2022/07/06 02:58:14;;;;;;;3.45;1.00;;;;;;;14.46;78.08;102491.88;4996161;28;20084;-69
2022/07/06 03:00:39;;;;;;;2.95;1.17;;;;;;;14.43;77.85;102495.63;4996200;28;20027;-68
2022/07/06 03:03:05;;;;;;;6.28;1.38;;;;;;;14.58;76.80;102493.13;4996213;28;20034;-68
2022/07/06 03:05:30;;;;;;;4.10;0.90;;;;;;;14.47;77.58;102501.28;4994887;28;20037;-68
2022/07/06 03:07:55;;;;;;;2.50;1.02;;;;;;;14.45;77.99;102503.28;4994821;28;20389;-70
2022/07/06 03:10:20;;;;;;;4.93;0.90;;;;;;;14.40;78.17;102501.19;4996208;28;20072;-69
2022/07/06 03:12:46;;;;;;;3.72;0.93;;;;;;;14.57;77.17;102495.94;4996090;28;20037;-69
2022/07/06 03:15:12;;;;;;;4.75;1.17;;;;;;;14.50;77.35;102505.34;4996037;28;20384;-69
2022/07/06 03:17:38;;;;;;;2.78;1.00;;;;;;;14.39;78.27;102503.97;4995903;28;20026;-68
2022/07/06 03:20:04;;;;;;;3.20;0.70;;;;;;;14.17;78.09;102472.50;4995869;28;20041;-68
2022/07/06 03:22:30;;;;;;;4.25;1.00;;;;;;;14.29;78.44;102498.16;4995917;28;20030;-68
2022/07/06 03:24:55;;;;;;;3.58;1.00;;;;;;;14.23;78.70;102495.22;4995839;28;20022;-69
2022/07/06 03:27:20;;;;;;;3.47;0.90;;;;;;;14.26;78.79;102496.69;4995757;28;20465;-69
2022/07/06 03:29:45;;;;;;;4.57;1.17;;;;;;;14.30;78.14;102495.38;4994414;28;20037;-69
2022/07/06 03:32:11;;;;;;;3.42;1.00;;;;;;;14.38;78.48;102500.53;4995728;28;20023;-69
2022/07/06 03:34:36;;;;;;;3.83;0.90;;;;;;;14.31;77.63;102507.41;4995725;28;20374;-69
2022/07/06 03:37:01;;;;;;;4.03;0.98;;;;;;;14.25;78.33;102502.06;4995038;28;20027;-69
2022/07/06 03:39:26;;;;;;;3.72;0.98;;;;;;;14.22;78.44;102498.81;4994251;28;20034;-68
2022/07/06 03:41:52;;;;;;;6.22;1.20;;;;;;;14.12;78.57;102493.00;4993973;28;20058;-68
2022/07/06 03:44:17;;;;;;;6.05;0.80;;;;;;;14.00;78.91;102482.16;4994252;28;20022;-68
2022/07/06 03:46:42;;;;;;;3.08;1.23;;;;;;;13.99;79.42;102483.16;4995486;28;20494;-68
2022/07/06 03:49:08;;;;;;;3.10;1.00;;;;;;;14.05;79.07;102481.66;4995351;28;20117;-68
2022/07/06 03:51:33;;;;;;;6.40;1.58;;;;;;;14.15;78.84;102484.88;4995375;28;20033;-68
2022/07/06 03:53:58;;;;;;;3.45;1.10;;;;;;;14.30;78.47;102490.19;4994092;28;20026;-68
2022/07/06 03:56:29;;;;;;;2.95;0.98;;;;;;;14.25;78.05;102497.69;4995205;28;20367;-69
2022/07/06 03:58:56;;;;;;;3.10;0.80;;;;;;;14.36;77.86;102488.69;4993830;28;20117;-68
2022/07/06 04:01:21;;;;;;;2.47;0.85;;;;;;;14.40;77.22;102495.97;4995256;28;20053;-70
2022/07/06 04:03:47;;;;;;;4.93;1.15;;;;;;;14.51;77.70;102488.78;4994974;28;20026;-68
2022/07/06 04:06:12;;;;;;;2.00;0.98;;;;;;;14.54;77.43;102486.66;4995030;28;20101;-69
2022/07/06 04:08:37;;;;;;;4.07;1.00;;;;;;;14.55;77.61;102488.28;4995006;28;20021;-68
2022/07/06 04:11:02;;;;;;;4.28;1.15;;;;;;;14.72;76.74;102478.59;4994905;28;20080;-68
2022/07/06 04:13:28;;;;;;;2.60;1.00;;;;;;;14.72;77.25;102485.59;4994969;28;20026;-69
2022/07/06 04:15:53;;;;;;;3.50;1.20;;;;;;;14.68;77.77;102492.13;4994968;28;20105;-68
2022/07/06 04:18:18;;;;;;;5.32;1.33;;;;;;;14.57;78.06;102490.72;4994729;28;20121;-68
2022/07/06 04:20:44;;;;;;;5.13;1.10;;;;;;;14.60;78.64;102490.38;4994924;28;20026;-69
2022/07/06 04:23:09;;;;;;;5.38;1.00;;;;;;;14.69;78.58;102493.75;4994682;28;20389;-70
2022/07/06 04:25:34;;;;;;;3.13;1.08;;;;;;;14.63;79.13;102501.25;4994563;28;20041;-68
2022/07/06 04:28:01;;;;;;;2.78;1.00;;;;;;;14.62;78.70;102498.81;4994603;28;20185;-68
2022/07/06 04:30:27;;;;;;;4.97;1.08;;;;;;;14.61;77.92;102503.19;4993584;28;20106;-68
2022/07/06 04:32:52;;;;;;;3.10;1.00;;;;;;;14.82;77.72;102505.22;4994526;28;20092;-69
2022/07/06 04:35:17;;;;;;;4.05;0.93;;;;;;;14.89;77.75;102500.91;4994623;28;20027;-68
2022/07/06 04:37:45;;;;;;;3.72;1.10;;;;;;;14.89;78.26;102495.72;4994394;28;20478;-69
2022/07/06 04:40:10;;;;;;;2.45;1.15;;;;;;;15.00;78.18;102501.50;4994331;28;20371;-69
2022/07/06 04:42:37;;;;;;;3.55;1.00;;;;;;;14.95;77.52;102494.19;4994169;28;20060;-68
2022/07/06 04:45:02;;;;;;;2.67;1.00;;;;;;;14.89;77.72;102500.09;4994288;28;20027;-69
2022/07/06 04:47:28;;;;;;;3.50;1.05;;;;;;;15.01;77.77;102495.31;4991961;28;20038;-68
2022/07/06 04:49:53;;;;;;;4.13;1.10;;;;;;;15.09;77.15;102495.25;4994366;28;20018;-69
2022/07/06 04:52:18;;;;;;;4.63;1.05;;;;;;;15.08;77.40;102502.25;4994261;28;20497;-68
2022/07/06 04:54:43;;;;;;;2.33;0.93;;;;;;;15.18;77.19;102501.19;4994230;28;20030;-69
2022/07/06 04:57:09;;;;;;;7.40;1.20;;;;;;;15.29;76.86;102500.78;4994603;28;20088;-69
2022/07/06 04:59:34;;;;;;;5.57;1.10;;;;;;;15.45;76.69;102494.59;4994596;28;20026;-68
2022/07/06 05:01:59;;;;;;;5.20;1.02;;;;;;;15.68;77.05;102505.00;4994766;28;20490;-69
2022/07/06 05:04:24;;;;;;;7.72;1.33;;;;;;;15.48;76.46;102502.88;4994299;28;20026;-69
2022/07/06 05:06:50;;;;;;;3.97;1.20;;;;;;;15.76;75.41;102502.31;4994400;28;20018;-69
2022/07/06 05:09:15;;;;;;;6.25;1.20;;;;;;;15.69;75.45;102506.63;4994206;28;20157;-68
2022/07/06 05:11:41;;;;;;;3.40;1.20;;;;;;;15.79;75.46;102508.00;4994414;28;20026;-68
2022/07/06 05:14:06;;;;;;;4.05;1.20;;;;;;;15.96;74.67;102505.19;4995299;28;20109;-68
2022/07/06 05:16:32;;;;;;;4.53;1.10;;;;;;;16.22;73.78;102504.72;4993437;28;20033;-69
2022/07/06 05:18:58;;;;;;;2.25;0.88;;;;;;;16.29;74.01;102505.59;4994351;28;20478;-69
2022/07/06 05:21:23;;;;;;;7.80;1.00;;;;;;;16.36;72.82;102508.28;4994340;28;20033;-69
2022/07/06 05:23:48;;;;;;;6.68;1.35;;;;;;;16.39;73.80;102507.91;4992885;28;20027;-69
2022/07/06 05:26:14;;;;;;;6.22;1.08;;;;;;;16.49;72.84;102505.84;4994075;28;20033;-69
2022/07/06 05:28:39;;;;;;;5.88;1.00;;;;;;;16.65;72.09;102508.19;4993973;28;20030;-69
2022/07/06 05:31:05;;;;;;;4.00;1.20;;;;;;;16.99;70.82;102516.41;4993707;28;20429;-69
2022/07/06 05:33:30;;;;;;;3.60;1.15;;;;;;;16.94;70.03;102518.75;4993729;28;20038;-69
2022/07/06 05:35:55;;;;;;;3.75;1.30;;;;;;;16.69;70.85;102512.06;4993577;28;20402;-69
2022/07/06 05:38:20;;;;;;;2.72;0.90;;;;;;;16.63;71.91;102514.59;4993715;28;20027;-69
2022/07/06 05:40:46;;;;;;;4.50;1.02;;;;;;;16.61;72.92;102521.81;4993516;28;20041;-69
2022/07/06 05:43:11;;;;;;;5.15;1.10;;;;;;;17.17;69.80;102526.38;4993643;28;20493;-69
2022/07/06 05:45:36;;;;;;;3.58;1.00;;;;;;;18.69;64.99;102521.19;5008983;28;20014;-69
2022/07/06 05:50:46;;;;;;;4.13;0.95;;;;;;;27.78;39.32;102524.47;4993898;28;20509;-70
2022/07/06 05:53:11;;;;;;;2.92;0.80;;;;;;;28.78;36.99;102523.31;4993566;28;20022;-69
2022/07/06 05:55:36;;;;;;;3.58;0.98;;;;;;;30.02;34.43;102521.81;4992334;28;20077;-70
2022/07/06 05:58:02;;;;;;;4.68;1.00;;;;;;;27.89;36.93;102518.16;4991558;28;20114;-70
2022/07/06 06:00:28;;;;;;;8.68;1.40;;;;;;;24.89;43.09;102516.94;4995602;28;20101;-69
2022/07/06 06:02:54;;;;;;;4.15;1.00;;;;;;;25.37;41.64;102520.81;4995424;28;20060;-70
2022/07/06 06:05:20;;;;;;;7.35;1.38;;;;;;;27.72;36.98;102522.06;5011493;28;20065;-69
2022/07/06 06:07:50;;;;;;;3.88;0.90;;;;;;;25.41;40.72;102527.22;4996635;28;20055;-70
2022/07/06 06:10:17;;;;;;;4.10;1.00;;;;;;;23.14;44.65;102527.78;4997109;28;20105;-70
2022/07/06 06:12:43;;;;;;;5.13;0.98;;;;;;;24.29;42.50;102521.72;4997164;28;20489;-69
2022/07/06 06:15:09;;;;;;;3.88;0.85;;;;;;;27.58;36.60;102524.41;4997098;28;20026;-70
2022/07/06 06:17:38;;;;;;;4.13;0.95;;;;;;;27.86;36.79;102526.66;4997139;28;20398;-69
2022/07/06 06:20:11;;;;;;;4.00;1.00;;;;;;;28.84;34.47;102527.53;4995916;28;20018;-70
2022/07/06 06:22:54;;;;;;;5.53;1.20;;;;;;;29.84;33.57;102525.94;4996865;28;20041;-70
2022/07/06 06:25:28;;;;;;;3.80;0.95;;;;;;;29.15;33.02;102516.88;4996133;28;20030;-70
2022/07/06 06:27:53;;;;;;;2.97;1.08;;;;;;;29.10;32.67;102517.69;4995646;28;20037;-70
2022/07/06 06:30:18;;;;;;;2.65;0.82;;;;;;;29.60;31.57;102523.88;4995611;28;20494;-69
2022/07/06 06:32:44;;;;;;;4.82;1.10;;;;;;;28.96;32.27;102525.38;5011949;28;20028;-70
2022/07/06 06:35:09;;;;;;;3.38;0.60;;;;;;;28.22;33.96;102524.06;4995505;28;20099;-70
2022/07/06 06:37:35;;;;;;;4.20;0.80;;;;;;;28.44;33.51;102531.03;4996940;28;20109;-69
2022/07/06 06:40:00;;;;;;;6.00;0.90;;;;;;;27.86;34.55;102537.28;4996678;28;20113;-69
2022/07/06 06:42:26;;;;;;;3.75;0.85;;;;;;;28.32;33.16;102536.56;4996113;28;20042;-70
2022/07/06 06:44:51;;;;;;;3.13;0.70;;;;;;;28.04;34.43;102537.84;4996518;28;20022;-69
2022/07/06 06:47:16;;;;;;;4.13;0.80;;;;;;;26.97;34.99;102530.16;4995303;28;20041;-69
2022/07/06 06:49:42;;;;;;;7.93;1.00;;;;;;;25.21;38.09;102525.09;4996719;28;20269;-68
2022/07/06 06:52:07;;;;;;;5.22;1.38;;;;;;;24.25;40.80;102528.50;4996483;28;20273;-68
2022/07/06 06:54:32;;;;;;;3.17;0.80;;;;;;;23.91;41.85;102522.34;4995252;28;20026;-69
2022/07/06 06:56:57;;;;;;;6.25;1.50;;;;;;;22.60;45.39;102532.25;4996359;28;20022;-69
2022/07/06 06:59:23;;;;;;;5.73;0.90;;;;;;;22.68;43.79;102527.47;4995077;28;20421;-69
2022/07/06 07:01:48;;;;;;;4.60;1.25;;;;;;;22.51;44.33;102524.66;4996273;28;20277;-69
2022/07/06 07:04:14;;;;;;;3.28;0.80;;;;;;;22.55;44.10;102526.84;4994909;28;20161;-67
2022/07/06 07:06:40;;;;;;;3.03;0.88;;;;;;;20.90;47.71;102537.03;4996140;28;20030;-69
2022/07/06 07:09:05;;;;;;;5.80;0.90;;;;;;;21.47;47.31;102533.59;4994695;28;20037;-69
2022/07/06 07:11:31;;;;;;;5.18;0.63;;;;;;;22.11;46.13;102529.63;4993606;28;20042;-70
2022/07/06 07:13:56;;;;;;;4.53;0.98;;;;;;;23.07;44.10;102525.25;4996036;28;20032;-69
2022/07/06 07:16:23;;;;;;;5.80;1.25;;;;;;;22.89;44.32;102526.13;4994681;28;20141;-70
2022/07/06 07:18:48;;;;;;;5.80;1.00;;;;;;;23.24;43.12;102527.19;4994521;28;20027;-70
2022/07/06 07:21:13;;;;;;;2.50;0.63;;;;;;;21.97;44.03;102539.50;4993658;28;20026;-69
2022/07/06 07:23:39;;;;;;;4.28;0.85;;;;;;;22.91;42.16;102529.34;4996003;28;20038;-70
2022/07/06 07:26:04;;;;;;;3.88;0.63;;;;;;;21.24;45.32;102536.78;4995719;28;20035;-69
2022/07/06 07:28:29;;;;;;;2.95;0.80;;;;;;;20.41;48.13;102532.47;4995589;28;20034;-69
2022/07/06 07:30:54;;;;;;;5.07;0.80;;;;;;;21.09;46.22;102535.28;4995135;28;20045;-70
2022/07/06 07:33:20;;;;;;;4.57;0.95;;;;;;;20.75;47.17;102531.28;4995464;28;20036;-69
2022/07/06 07:35:45;;;;;;;3.55;0.90;;;;;;;20.87;45.99;102539.31;4994109;28;20085;-68
2022/07/06 07:38:10;;;;;;;3.83;0.98;;;;;;;21.75;45.70;102526.00;4995354;28;20058;-68
2022/07/06 07:40:36;;;;;;;3.83;0.80;;;;;;;22.72;43.19;102535.69;4994196;28;20033;-67
2022/07/06 07:43:01;;;;;;;2.55;0.80;;;;;;;23.65;41.06;102532.34;4993987;28;20137;-69
2022/07/06 07:45:26;;;;;;;4.82;1.10;;;;;;;22.90;42.17;102533.00;4995353;28;20112;-69
2022/07/06 07:47:52;;;;;;;4.47;0.77;;;;;;;23.06;42.45;102525.47;4995293;28;20501;-69
2022/07/06 07:50:18;;;;;;;4.40;0.95;;;;;;;23.12;41.42;102532.47;4995353;28;20027;-69
2022/07/06 07:52:43;;;;;;;5.50;0.82;;;;;;;22.34;43.56;102538.69;4994018;28;20018;-69
2022/07/06 07:55:09;;;;;;;7.43;1.50;;;;;;;21.99;43.82;102544.56;4995461;28;20180;-69
2022/07/06 07:57:34;;;;;;;5.63;0.82;;;;;;;22.51;42.83;102531.75;4993701;28;20030;-70
2022/07/06 07:59:59;;;;;;;3.10;0.82;;;;;;;22.89;41.41;102534.03;4994969;28;20030;-70
2022/07/06 08:02:25;;;;;;;2.97;1.00;;;;;;;22.88;41.42;102527.16;4994228;28;20139;-69
2022/07/06 08:04:50;;;;;;;4.00;1.00;;;;;;;22.00;45.55;102531.16;4993855;28;20049;-70
2022/07/06 08:07:15;;;;;;;3.72;0.90;;;;;;;21.96;44.06;102535.28;4994651;28;20512;-70
2022/07/06 08:09:40;;;;;;;7.70;0.90;;;;;;;21.73;44.56;102532.50;4994502;28;20101;-69
2022/07/06 08:12:06;;;;;;;3.80;1.10;;;;;;;22.74;41.84;102529.19;4993289;28;20030;-69
2022/07/06 08:14:31;;;;;;;3.53;0.88;;;;;;;23.46;40.51;102530.06;4996010;28;20029;-69
2022/07/06 08:16:57;;;;;;;3.90;0.88;;;;;;;23.12;40.50;102524.56;4994620;28;20030;-68
2022/07/06 08:19:22;;;;;;;4.30;0.70;;;;;;;22.07;41.84;102537.16;4994497;28;20026;-69
2022/07/06 08:21:48;;;;;;;3.03;0.88;;;;;;;22.35;41.47;102524.47;4992972;28;20030;-69
2022/07/06 08:24:13;;;;;;;3.75;0.90;;;;;;;21.84;43.35;102529.16;4993292;28;20105;-69
2022/07/06 08:26:38;;;;;;;5.25;1.20;;;;;;;22.40;41.57;102522.78;4994451;28;20474;-68
2022/07/06 08:29:04;;;;;;;3.63;1.00;;;;;;;23.26;39.56;102525.94;4994327;28;20381;-69
2022/07/06 08:31:29;;;;;;;4.82;0.70;;;;;;;23.49;40.45;102529.59;4993072;28;20034;-69
2022/07/06 08:33:55;;;;;;;4.38;0.80;;;;;;;22.66;41.46;102529.50;4993032;28;20076;-68
2022/07/06 08:36:21;;;;;;;3.65;0.75;;;;;;;21.95;43.09;102522.31;4994416;28;20026;-69
2022/07/06 08:38:47;;;;;;;1.83;0.70;;;;;;;22.01;43.76;102527.53;4992773;28;20031;-69
2022/07/06 08:41:14;;;;;;;3.22;0.73;;;;;;;21.78;43.71;102527.38;4994086;28;20054;-70
2022/07/06 08:43:40;;;;;;;4.75;0.70;;;;;;;22.30;41.63;102518.06;4993003;28;20088;-69
2022/07/06 08:46:07;;;;;;;2.65;0.70;;;;;;;22.58;41.15;102518.47;4994261;28;20446;-70
2022/07/06 08:48:36;;;;;;;3.67;0.85;;;;;;;22.52;40.83;102517.56;4994133;28;20018;-69
2022/07/06 08:51:01;;;;;;;2.75;0.57;;;;;;;22.61;39.86;102518.84;4994266;28;20029;-69
2022/07/06 08:53:27;;;;;;;2.58;0.68;;;;;;;23.34;38.81;102520.31;4994181;28;20026;-69
2022/07/06 08:55:53;;;;;;;3.22;0.80;;;;;;;24.27;37.47;102509.78;4994080;28;20085;-69
2022/07/06 08:58:19;;;;;;;2.20;0.70;;;;;;;24.35;38.02;102508.59;4994155;28;20477;-70
2022/07/06 09:00:44;;;;;;;4.60;1.05;;;;;;;24.52;37.61;102507.63;4993803;28;20032;-69
2022/07/06 09:03:12;;;;;;;2.60;0.70;;;;;;;24.51;36.81;102515.75;4994481;28;20046;-71
2022/07/06 09:05:39;;;;;;;4.32;0.85;;;;;;;24.94;35.50;102519.63;4993631;28;20434;-72
2022/07/06 09:08:05;;;;;;;4.72;0.63;;;;;;;24.50;36.29;102508.88;4993169;28;20100;-71
2022/07/06 09:10:30;;;;;;;3.75;0.70;;;;;;;23.82;36.54;102507.88;4993871;28;20030;-72
2022/07/06 09:13:04;;;;;;;1.55;0.40;;;;;;;22.83;38.84;102508.56;4993771;28;20022;-71
2022/07/06 09:15:30;;;;;;;3.70;0.60;;;;;;;23.35;38.30;102510.56;4991484;28;20030;-71
2022/07/06 09:17:56;;;;;;;2.63;0.60;;;;;;;23.50;38.52;102518.00;4993808;28;20053;-71
2022/07/06 09:20:21;;;;;;;1.77;0.40;;;;;;;23.77;37.03;102521.00;4993786;28;20362;-71
2022/07/06 09:22:47;;;;;;;1.55;0.50;;;;;;;22.97;39.35;102510.00;4992464;28;20056;-70
2022/07/06 09:25:14;;;;;;;1.48;0.40;;;;;;;22.69;38.97;102510.59;4993817;28;20035;-70
2022/07/06 09:27:42;;;;;;;2.65;0.40;;;;;;;22.55;38.99;102516.31;4993393;28;20042;-71
2022/07/06 09:30:10;;;;;;;1.60;0.57;;;;;;;22.78;39.90;102512.91;4993723;28;20102;-71
2022/07/06 09:32:43;;;;;;;2.58;0.70;;;;;;;23.51;39.82;102515.16;4992177;28;20498;-71
2022/07/06 09:35:23;;;;;;;1.55;0.40;;;;;;;23.07;39.68;102509.41;4993036;28;20030;-71
2022/07/06 09:38:10;;;;;;;1.83;0.60;;;;;;;22.35;40.14;102519.22;4993308;28;20040;-71
2022/07/06 09:40:40;;;;;;;2.25;0.75;;;;;;;22.41;42.40;102520.94;4993317;28;20030;-71
2022/07/06 09:43:18;;;;;;;0.80;0.30;;;;;;;22.28;42.04;102524.59;4993357;28;20058;-71
2022/07/06 09:45:50;;;;;;;3.90;0.60;;;;;;;21.94;40.98;102523.34;4992176;28;20101;-71
2022/07/06 09:48:24;;;;;;;2.63;0.63;;;;;;;21.99;40.34;102534.03;4992405;28;20022;-71
2022/07/06 09:50:53;;;;;;;2.85;0.60;;;;;;;22.31;41.50;102532.03;4993294;28;20049;-70
2022/07/06 09:53:20;;;;;;;3.00;0.57;;;;;;;22.59;41.20;102528.81;4993154;28;20026;-71
2022/07/06 09:55:51;;;;;;;2.25;0.60;;;;;;;22.83;40.27;102526.22;4991873;28;20109;-69
2022/07/06 09:58:17;;;;;;;2.13;0.60;;;;;;;22.86;40.08;102525.78;4992125;28;20027;-71
2022/07/06 10:00:44;;;;;;;3.00;0.73;;;;;;;23.00;38.02;102514.00;4993318;28;20030;-71
2022/07/06 10:03:10;;;;;;;1.60;0.50;;;;;;;24.01;37.34;102524.34;4992259;28;20034;-71
2022/07/06 10:05:45;;;;;;;4.85;0.45;;;;;;;24.57;36.94;102519.28;4992065;28;20108;-71
2022/07/06 10:08:12;;;;;;;3.72;0.68;;;;;;;24.57;34.57;102521.94;4993436;28;20018;-71
2022/07/06 10:10:39;;;;;;;2.15;0.70;;;;;;;24.88;34.79;102520.59;4993352;28;20109;-71
2022/07/06 10:13:06;;;;;;;2.88;0.60;;;;;;;24.70;34.38;102513.72;4993245;28;20033;-71
2022/07/06 10:15:32;;;;;;;3.28;0.60;;;;;;;25.02;34.09;102523.72;4993332;28;20385;-71
2022/07/06 10:17:58;;;;;;;8.52;0.45;;;;;;;25.11;33.82;102525.69;4991868;28;20032;-70
2022/07/06 10:20:28;;;;;;;3.13;0.57;;;;;;;24.13;35.62;102514.53;4993191;28;20033;-69
2022/07/06 10:22:54;;;;;;;3.90;0.60;;;;;;;23.77;36.49;102524.44;4993134;28;20026;-70
2022/07/06 10:25:19;;;;;;;1.98;0.50;;;;;;;22.97;38.39;102523.19;4993013;28;20030;-71
2022/07/06 10:27:46;;;;;;;0.98;0.43;;;;;;;23.54;37.02;102527.09;4993090;28;20109;-71
2022/07/06 10:30:13;;;;;;;1.02;0.55;;;;;;;23.16;37.93;102513.34;4991351;28;20030;-70
2022/07/06 10:32:40;;;;;;;1.50;0.50;;;;;;;23.04;37.01;102511.72;4992789;28;20497;-71
2022/07/06 10:35:07;;;;;;;2.25;0.70;;;;;;;23.97;36.41;102518.75;4992953;28;20037;-71
2022/07/06 10:37:33;;;;;;;2.38;1.20;;;;;;;24.09;35.46;102510.78;4990928;28;20149;-72
2022/07/06 10:42:57;;;;;;;2.80;0.60;;;;;;;25.13;33.26;102504.31;4992767;28;20421;-71
2022/07/06 10:45:29;;;;;;;5.60;0.77;;;;;;;25.17;32.14;102508.09;4991513;28;20113;-71
2022/07/06 10:48:12;;;;;;;2.45;0.82;;;;;;;23.81;34.50;102509.72;4994968;28;20150;-71
2022/07/06 10:50:40;;;;;;;3.42;0.80;;;;;;;24.72;33.90;102506.34;4996242;28;20022;-71
2022/07/06 10:53:13;;;;;;;2.88;0.70;;;;;;;25.08;34.49;102502.38;4996280;28;20529;-71
2022/07/06 10:55:42;;;;;;;1.83;0.50;;;;;;;27.13;32.67;102493.88;4995060;28;20030;-71
2022/07/06 10:58:08;;;;;;;3.67;0.60;;;;;;;25.74;32.49;102504.31;4996207;28;20034;-71
2022/07/06 11:00:56;;;;;;;2.47;0.60;;;;;;;24.56;35.04;102496.56;4996086;28;20030;-71
2022/07/06 11:03:41;;;;;;;2.55;0.55;;;;;;;24.23;34.94;102495.47;4994756;28;20033;-72
2022/07/06 11:06:25;;;;;;;2.95;0.60;;;;;;;24.79;34.61;102493.75;4996377;28;20030;-72
2022/07/06 11:09:08;;;;;;;1.98;0.63;;;;;;;25.60;33.65;102486.16;4995998;28;20034;-71
2022/07/06 11:11:33;;;;;;;3.25;0.70;;;;;;;25.97;32.46;102485.53;4994799;28;20073;-71
2022/07/06 11:14:09;;;;;;;1.57;0.80;;;;;;;25.57;31.90;102486.66;4995939;28;20022;-71
2022/07/06 11:17:00;;;;;;;4.38;0.80;;;;;;;26.19;30.83;102482.84;4994642;28;20367;-71
2022/07/06 11:19:26;;;;;;;3.10;0.70;;;;;;;25.25;33.14;102475.13;4995854;28;20117;-71
2022/07/06 11:21:56;;;;;;;2.33;0.68;;;;;;;25.71;33.51;102481.00;4995791;28;20097;-71
2022/07/06 11:24:26;;;;;;;6.05;0.70;;;;;;;24.94;33.84;102475.47;4995818;28;20113;-71
2022/07/06 11:26:53;;;;;;;1.67;0.90;;;;;;;25.59;32.43;102473.97;4995735;28;20026;-70
2022/07/06 11:29:21;;;;;;;1.92;0.60;;;;;;;25.53;32.90;102463.59;4995624;28;20440;-71